Time;durP1;ratioP1;P1;durP2;ratioP2;P2;SDS_P1;SDS_P2;PMS_P1;PMS_P2;Temp;Humidity;BMP_temperature;BMP_pressure;BME280_temperature;BME280_humidity;BME280_pressure;Samples;Min_cycle;Max_cycle;Signal;HPM_P1;HPM_P2
2024/01/20 00:00:42;;;;;;;3.25;2.17;;;;;;;-3.25;100.00;92901.31;4836571;29;20042;-80
2024/01/20 00:03:08;;;;;;;3.78;2.05;;;;;;;-3.24;100.00;92904.63;4838673;29;20057;-80
2024/01/20 00:05:33;;;;;;;3.75;2.30;;;;;;;-3.30;98.24;92890.84;4812765;29;20117;-80
2024/01/20 00:07:59;;;;;;;3.28;2.20;;;;;;;-3.25;97.96;92903.84;4837754;29;20487;-79
2024/01/20 00:10:24;;;;;;;3.63;1.95;;;;;;;-3.28;99.47;92901.69;4828697;29;20034;-78
2024/01/20 00:12:50;;;;;;;4.00;2.42;;;;;;;-3.36;97.94;92905.19;4839367;29;20049;-79
2024/01/20 00:15:16;;;;;;;3.33;1.92;;;;;;;-3.38;97.27;92906.38;4844238;29;20117;-79
2024/01/20 00:17:41;;;;;;;3.08;2.05;;;;;;;-3.46;97.30;92914.22;4844714;29;20128;-80
2024/01/20 00:20:08;;;;;;;6.88;2.15;;;;;;;-3.51;96.38;92919.09;4836913;29;20054;-80
2024/01/20 00:22:34;;;;;;;3.15;1.77;;;;;;;-3.53;96.97;92926.19;4826613;29;20049;-80
2024/01/20 00:25:02;;;;;;;3.10;1.95;;;;;;;-3.60;97.49;92928.72;4844117;29;20044;-79
2024/01/20 00:27:29;;;;;;;3.08;1.85;;;;;;;-3.64;98.33;92928.31;4827226;29;20253;-79
2024/01/20 00:29:55;;;;;;;3.72;2.30;;;;;;;-3.67;98.97;92933.81;4836863;29;20055;-79
2024/01/20 00:32:20;;;;;;;3.67;2.20;;;;;;;-3.63;100.00;92939.31;4843184;29;20082;-79
2024/01/20 00:34:46;;;;;;;3.58;1.98;;;;;;;-3.69;100.00;92934.94;4842500;29;20054;-79
2024/01/20 00:37:12;;;;;;;3.17;1.95;;;;;;;-3.60;100.00;92934.63;4843906;29;20054;-79
2024/01/20 00:39:37;;;;;;;3.78;2.50;;;;;;;-3.63;100.00;92932.44;4844574;29;20038;-79
2024/01/20 00:42:03;;;;;;;4.10;2.25;;;;;;;-3.63;100.00;92936.75;4844000;29;20050;-79
2024/01/20 00:44:29;;;;;;;3.13;2.10;;;;;;;-3.67;100.00;92938.94;4836422;29;20048;-80
2024/01/20 00:46:56;;;;;;;3.80;2.35;;;;;;;-3.67;100.00;92928.69;4836459;29;20433;-79
2024/01/20 00:49:21;;;;;;;4.82;2.50;;;;;;;-3.61;100.00;92927.91;4843279;29;20038;-79
2024/01/20 00:51:47;;;;;;;3.67;2.38;;;;;;;-3.64;100.00;92925.75;4843163;29;20038;-79
2024/01/20 00:54:12;;;;;;;4.55;2.40;;;;;;;-3.61;100.00;92935.59;4843154;29;20490;-80
2024/01/20 00:56:38;;;;;;;4.20;2.50;;;;;;;-3.67;100.00;92938.13;4838498;29;20557;-79
2024/01/20 00:59:04;;;;;;;5.78;2.50;;;;;;;-3.74;100.00;92943.19;4824496;29;20037;-79
2024/01/20 01:01:29;;;;;;;4.05;2.45;;;;;;;-3.79;100.00;92942.97;4836745;29;20037;-79
2024/01/20 01:03:55;;;;;;;4.63;2.17;;;;;;;-3.83;100.00;92939.19;4843094;29;20053;-79
2024/01/20 01:06:20;;;;;;;4.15;2.40;;;;;;;-3.83;100.00;92936.66;4842772;29;20495;-79
2024/01/20 01:08:46;;;;;;;4.10;2.40;;;;;;;-3.86;100.00;92942.16;4842572;29;20042;-80
2024/01/20 01:11:11;;;;;;;8.32;2.40;;;;;;;-3.89;100.00;92951.00;4842020;29;20042;-79
2024/01/20 01:13:39;;;;;;;3.85;2.10;;;;;;;-3.93;100.00;92947.22;4843193;29;20716;-79
2024/01/20 01:16:05;;;;;;;2.80;1.80;;;;;;;-3.98;100.00;92952.88;4826141;29;20521;-80
2024/01/20 01:18:31;;;;;;;4.22;2.00;;;;;;;-4.09;100.00;92948.28;4828965;29;20079;-79
2024/01/20 01:20:57;;;;;;;3.05;1.88;;;;;;;-4.07;100.00;92958.34;4843452;29;20475;-79
2024/01/20 01:23:22;;;;;;;5.50;2.00;;;;;;;-4.10;100.00;92961.25;4832578;29;20097;-79
2024/01/20 01:25:49;;;;;;;3.33;1.90;;;;;;;-4.13;100.00;92969.28;4840689;29;20201;-79
2024/01/20 01:28:14;;;;;;;3.63;1.92;;;;;;;-4.17;100.00;92968.88;4843209;29;20049;-79
2024/01/20 01:30:40;;;;;;;3.40;2.05;;;;;;;-4.23;100.00;92965.28;4836337;29;20090;-79
2024/01/20 01:33:06;;;;;;;3.63;2.17;;;;;;;-4.32;100.00;92963.03;4818736;29;20046;-79
2024/01/20 01:35:31;;;;;;;5.20;1.98;;;;;;;-4.30;100.00;92973.88;4808637;29;20115;-79
2024/01/20 01:37:58;;;;;;;3.97;2.25;;;;;;;-4.32;100.00;92976.63;4840179;29;20082;-79
2024/01/20 01:40:27;;;;;;;3.83;2.10;;;;;;;-4.34;100.00;92977.78;4834715;29;20129;-79
2024/01/20 01:42:56;;;;;;;4.55;2.38;;;;;;;-4.38;100.00;92977.34;4843287;29;20053;-79
2024/01/20 01:45:22;;;;;;;3.90;2.22;;;;;;;-4.42;100.00;92971.81;4826233;29;20046;-79
2024/01/20 01:47:48;;;;;;;3.88;2.35;;;;;;;-4.49;100.00;92968.41;4837549;29;20117;-79
2024/01/20 01:50:13;;;;;;;3.90;2.60;;;;;;;-4.50;100.00;92971.13;4840815;29;20065;-79
2024/01/20 01:52:40;;;;;;;3.95;2.40;;;;;;;-4.54;100.00;92973.28;4837294;29;20054;-79
2024/01/20 01:55:07;;;;;;;3.90;2.50;;;;;;;-4.56;100.00;92970.09;4838358;29;20775;-79
2024/01/20 01:57:35;;;;;;;3.60;2.15;;;;;;;-4.60;100.00;92966.31;4817910;29;20506;-79
2024/01/20 02:00:04;;;;;;;3.35;2.20;;;;;;;-4.59;100.00;92975.59;4840763;29;20038;-79
2024/01/20 02:02:31;;;;;;;3.45;2.30;;;;;;;-4.62;100.00;92966.50;4827472;29;20486;-79
2024/01/20 02:04:56;;;;;;;4.30;2.63;;;;;;;-4.63;100.00;92969.25;4840843;29;20053;-79
2024/01/20 02:07:22;;;;;;;4.93;2.60;;;;;;;-4.66;100.00;92964.50;4832287;29;20046;-79
2024/01/20 02:09:48;;;;;;;3.85;2.25;;;;;;;-4.66;100.00;92969.59;4825342;29;20037;-79
2024/01/20 02:12:14;;;;;;;4.28;2.58;;;;;;;-4.70;100.00;92963.28;4841448;29;20053;-78
2024/01/20 02:14:44;;;;;;;4.60;2.88;;;;;;;-4.69;100.00;92969.97;4841425;29;20178;-79
2024/01/20 02:17:09;;;;;;;4.30;2.45;;;;;;;-4.74;100.00;92973.06;4841423;29;20042;-79
2024/01/20 02:19:37;;;;;;;4.43;2.40;;;;;;;-4.76;100.00;92974.22;4841113;29;20057;-79
2024/01/20 02:22:29;;;;;;;4.40;2.35;;;;;;;-4.79;100.00;92979.72;4839649;29;20049;-79
2024/01/20 02:24:55;;;;;;;4.25;2.30;;;;;;;-4.83;100.00;92982.59;4837753;29;20054;-79
2024/01/20 02:27:20;;;;;;;3.63;2.30;;;;;;;-4.85;100.00;92989.66;4840494;29;20057;-80
2024/01/20 02:29:46;;;;;;;3.95;2.28;;;;;;;-4.89;100.00;92980.75;4832222;29;20188;-78
2024/01/20 02:32:11;;;;;;;2.95;1.92;;;;;;;-4.83;100.00;92984.38;4838682;29;20045;-79
2024/01/20 02:34:39;;;;;;;2.63;1.70;;;;;;;-4.85;100.00;92983.75;4839324;29;20065;-80
2024/01/20 02:37:07;;;;;;;3.88;2.05;;;;;;;-4.90;100.00;92989.41;4819362;29;20054;-79
2024/01/20 02:39:33;;;;;;;3.53;2.03;;;;;;;-4.96;100.00;92982.47;4839643;29;20042;-79
2024/01/20 02:41:58;;;;;;;3.40;1.83;;;;;;;-5.00;100.00;92980.44;4828387;29;20037;-79
2024/01/20 02:44:24;;;;;;;2.83;1.92;;;;;;;-5.02;100.00;92988.31;4836640;29;20480;-78
2024/01/20 02:46:52;;;;;;;3.65;2.08;;;;;;;-5.04;100.00;92985.91;4835652;29;20037;-79
2024/01/20 02:49:18;;;;;;;3.90;1.92;;;;;;;-5.03;100.00;92984.16;4835463;29;20077;-79
2024/01/20 02:51:43;;;;;;;2.65;1.80;;;;;;;-5.07;100.00;92988.81;4839517;29;20048;-78
2024/01/20 02:54:09;;;;;;;3.33;2.00;;;;;;;-5.10;100.00;92986.63;4815487;29;20046;-79
2024/01/20 02:56:34;;;;;;;2.33;1.60;;;;;;;-5.12;98.01;92990.34;4831667;29;20053;-79
2024/01/20 02:59:00;;;;;;;2.38;1.55;;;;;;;-5.14;95.47;92997.38;4839482;29;20049;-79
2024/01/20 03:01:25;;;;;;;3.95;1.70;;;;;;;-5.14;92.40;92997.38;4838902;29;20072;-79
2024/01/20 03:03:51;;;;;;;3.25;1.73;;;;;;;-5.17;87.10;92992.63;4838700;29;20064;-79
2024/01/20 03:06:16;;;;;;;3.47;1.80;;;;;;;-5.14;87.13;92990.50;4837899;29;20053;-79
2024/01/20 03:08:42;;;;;;;2.47;1.70;;;;;;;-5.17;85.93;93003.63;4834054;29;20054;-79
2024/01/20 03:11:07;;;;;;;3.13;1.52;;;;;;;-5.17;85.83;93008.72;4837301;29;20026;-79
2024/01/20 03:13:33;;;;;;;6.05;1.50;;;;;;;-5.19;85.35;93009.88;4839132;29;20049;-79
2024/01/20 03:15:59;;;;;;;2.67;1.80;;;;;;;-5.20;86.00;93018.50;4836048;29;20042;-79
2024/01/20 03:18:24;;;;;;;4.82;1.80;;;;;;;-5.19;85.89;93015.78;4838670;29;20030;-78
2024/01/20 03:20:50;;;;;;;2.17;1.55;;;;;;;-5.18;85.48;93011.47;4822053;29;20386;-78
2024/01/20 03:23:15;;;;;;;1.88;1.40;;;;;;;-5.19;84.64;93007.34;4832191;29;20348;-79
2024/01/20 03:25:41;;;;;;;2.17;1.50;;;;;;;-5.18;84.82;93011.47;4822997;29;20025;-79
2024/01/20 03:28:06;;;;;;;1.85;1.50;;;;;;;-5.17;84.54;93018.16;4815414;29;20098;-78
2024/01/20 03:30:32;;;;;;;2.13;1.40;;;;;;;-5.25;84.00;93012.19;4832120;29;20403;-79
2024/01/20 03:32:58;;;;;;;2.08;1.50;;;;;;;-5.19;79.93;93026.00;4831842;29;20030;-79
2024/01/20 03:35:23;;;;;;;2.97;1.63;;;;;;;-5.16;77.82;93024.84;4835309;29;20058;-79
2024/01/20 03:37:49;;;;;;;1.58;1.27;;;;;;;-5.14;76.36;93030.56;4833625;29;20038;-79
2024/01/20 03:40:17;;;;;;;1.65;1.40;;;;;;;-5.15;75.62;93029.00;4813761;29;20346;-79
2024/01/20 03:42:42;;;;;;;2.45;1.60;;;;;;;-5.18;76.19;93032.66;4815463;29;20046;-79
2024/01/20 03:45:08;;;;;;;1.88;1.50;;;;;;;-5.23;76.18;93040.06;4839418;29;20105;-79
2024/01/20 03:47:34;;;;;;;2.58;1.42;;;;;;;-5.23;75.72;93040.84;4812810;29;20083;-78
2024/01/20 03:49:59;;;;;;;2.03;1.42;;;;;;;-5.28;75.12;93040.59;4840158;29;20060;-79
2024/01/20 03:52:25;;;;;;;2.97;1.50;;;;;;;-5.33;75.04;93040.34;4834999;29;20041;-79
2024/01/20 03:54:50;;;;;;;2.65;1.50;;;;;;;-5.34;74.93;93051.50;4840701;29;20054;-78
2024/01/20 03:57:16;;;;;;;2.20;1.40;;;;;;;-5.38;73.24;93045.19;4824986;29;20037;-79
2024/01/20 03:59:41;;;;;;;1.85;1.40;;;;;;;-5.34;73.80;93051.50;4843637;29;20048;-79
2024/01/20 04:02:07;;;;;;;2.20;1.42;;;;;;;-5.37;75.37;93053.63;4842864;29;20125;-78
2024/01/20 04:04:36;;;;;;;2.00;1.35;;;;;;;-5.39;75.33;93060.66;4843519;29;20049;-78
2024/01/20 04:07:01;;;;;;;1.90;1.40;;;;;;;-5.40;76.80;93057.31;4842803;29;20374;-78
2024/01/20 04:09:27;;;;;;;2.05;1.55;;;;;;;-5.41;76.87;93065.16;4826423;29;20048;-79
2024/01/20 04:11:53;;;;;;;2.17;1.58;;;;;;;-5.44;78.24;93073.94;4843381;29;20052;-78
2024/01/20 04:14:18;;;;;;;1.65;1.30;;;;;;;-5.47;78.74;93076.84;4840508;29;20056;-78
2024/01/20 04:16:44;;;;;;;2.78;1.55;;;;;;;-5.49;79.50;93087.22;4837495;29;20040;-79
2024/01/20 04:19:09;;;;;;;2.45;1.65;;;;;;;-5.50;81.22;93075.41;4827185;29;20046;-79
2024/01/20 04:21:35;;;;;;;1.80;1.40;;;;;;;-5.48;83.34;93077.81;4836993;29;20068;-79
2024/01/20 04:24:00;;;;;;;2.08;1.48;;;;;;;-5.52;86.83;93082.44;4825916;29;20044;-79
2024/01/20 04:26:26;;;;;;;4.15;1.77;;;;;;;-5.46;88.62;93102.19;4839527;29;20050;-79
2024/01/20 04:28:51;;;;;;;3.78;1.73;;;;;;;-5.45;89.98;93105.53;4821310;29;20045;-79
2024/01/20 04:31:17;;;;;;;2.92;1.80;;;;;;;-5.44;93.35;93105.34;4836034;29;20044;-78
2024/01/20 04:33:42;;;;;;;2.40;1.65;;;;;;;-5.42;96.49;93110.28;4836511;29;20069;-78
2024/01/20 04:36:09;;;;;;;3.47;1.98;;;;;;;-5.40;100.00;93117.75;4832356;29;20081;-79
2024/01/20 04:38:34;;;;;;;3.35;1.85;;;;;;;-5.42;100.00;93112.84;4842221;29;20075;-79
2024/01/20 04:41:00;;;;;;;3.67;2.00;;;;;;;-5.40;100.00;93121.13;4841907;29;20046;-79
2024/01/20 04:43:27;;;;;;;3.03;1.77;;;;;;;-5.37;100.00;93117.44;4834988;29;20405;-79
2024/01/20 04:45:52;;;;;;;4.65;2.05;;;;;;;-5.35;100.00;93120.59;4835714;29;20027;-79
2024/01/20 04:48:19;;;;;;;2.08;1.60;;;;;;;-5.33;99.24;93127.13;4833085;29;20049;-79
2024/01/20 04:50:45;;;;;;;2.60;1.38;;;;;;;-5.34;90.71;93133.16;4824895;29;20046;-78
2024/01/20 04:53:11;;;;;;;2.42;1.80;;;;;;;-5.35;84.54;93131.59;4840452;29;20046;-79
2024/01/20 04:55:36;;;;;;;3.03;1.70;;;;;;;-5.39;83.20;93134.66;4827863;29;20064;-79
2024/01/20 04:58:02;;;;;;;2.28;1.55;;;;;;;-5.39;85.18;93140.56;4819095;29;20045;-79
2024/01/20 05:00:31;;;;;;;2.08;1.60;;;;;;;-5.45;88.40;93139.50;4818100;29;20065;-79
2024/01/20 05:02:57;;;;;;;1.73;1.40;;;;;;;-5.47;87.34;93140.63;4834120;29;20342;-78
2024/01/20 05:05:22;;;;;;;2.00;1.40;;;;;;;-5.50;83.22;93146.88;4817062;29;20050;-79
2024/01/20 05:07:48;;;;;;;2.22;1.60;;;;;;;-5.52;78.73;93145.44;4841644;29;20046;-79
2024/01/20 05:10:13;;;;;;;2.03;1.58;;;;;;;-5.55;76.81;93156.00;4840754;29;20124;-79
2024/01/20 05:12:39;;;;;;;2.67;1.70;;;;;;;-5.64;73.18;93155.28;4841617;29;20041;-79
2024/01/20 05:15:10;;;;;;;1.95;1.40;;;;;;;-5.65;72.39;93162.16;4826636;29;20054;-79
2024/01/20 05:17:36;;;;;;;1.60;1.30;;;;;;;-5.69;71.35;93167.75;4834523;29;20049;-79
2024/01/20 05:20:05;;;;;;;9.02;1.60;;;;;;;-5.69;71.82;93178.75;4824941;29;20040;-79
2024/01/20 05:22:31;;;;;;;1.42;1.30;;;;;;;-5.69;72.36;93180.50;4838109;29;20576;-79
2024/01/20 05:24:57;;;;;;;1.75;1.38;;;;;;;-5.72;72.63;93175.72;4838068;29;20042;-79
2024/01/20 05:27:22;;;;;;;1.98;1.40;;;;;;;-5.68;72.59;93187.19;4841392;29;20048;-78
2024/01/20 05:29:48;;;;;;;1.92;1.27;;;;;;;-5.76;72.71;93182.94;4819007;29;20119;-79
2024/01/20 05:32:17;;;;;;;1.83;1.30;;;;;;;-5.83;71.55;93189.69;4821271;29;20046;-79
2024/01/20 05:34:43;;;;;;;2.15;1.50;;;;;;;-5.80;71.14;93201.31;4835164;29;20274;-79
2024/01/20 05:37:08;;;;;;;2.40;1.52;;;;;;;-5.82;70.46;93208.34;4840917;29;20292;-79
2024/01/20 05:39:34;;;;;;;2.67;1.40;;;;;;;-5.87;70.25;93206.28;4840061;29;20045;-79
2024/01/20 05:42:00;;;;;;;1.80;1.50;;;;;;;-5.89;70.69;93213.31;4841080;29;20030;-79
2024/01/20 05:44:26;;;;;;;2.00;1.40;;;;;;;-5.92;70.36;93214.44;4841057;29;20048;-78
2024/01/20 05:46:52;;;;;;;1.40;1.27;;;;;;;-5.94;71.21;93225.81;4818433;29;20046;-79
2024/01/20 05:49:18;;;;;;;1.75;1.42;;;;;;;-5.92;68.95;93234.03;4839483;29;20402;-79
2024/01/20 05:51:46;;;;;;;1.90;1.40;;;;;;;-5.92;67.71;93234.84;4838997;29;20625;-79
2024/01/20 05:54:11;;;;;;;2.05;1.50;;;;;;;-5.91;68.04;93244.06;4832743;29;20120;-78
2024/01/20 05:56:37;;;;;;;1.73;1.33;;;;;;;-5.93;68.85;93238.34;4839561;29;20460;-78
2024/01/20 05:59:02;;;;;;;1.65;1.40;;;;;;;-5.98;69.38;93245.72;4823834;29;20061;-79
2024/01/20 06:01:28;;;;;;;2.17;1.42;;;;;;;-5.99;68.83;93248.44;4816216;29;20146;-79
2024/01/20 06:03:54;;;;;;;2.08;1.50;;;;;;;-6.02;69.73;93247.03;4839003;29;20418;-78
2024/01/20 06:06:19;;;;;;;2.72;1.55;;;;;;;-6.00;71.70;93249.41;4824384;29;20042;-79
2024/01/20 06:08:45;;;;;;;2.15;1.40;;;;;;;-6.03;71.89;93257.38;4816551;29;20042;-79
2024/01/20 06:11:11;;;;;;;1.50;1.40;;;;;;;-6.02;72.06;93259.78;4827625;29;20050;-79
2024/01/20 06:13:37;;;;;;;1.40;1.17;;;;;;;-6.03;70.80;93267.56;4840103;29;20050;-79
2024/01/20 06:16:05;;;;;;;1.83;1.40;;;;;;;-6.04;71.72;93266.00;4832438;29;20045;-79
2024/01/20 06:18:31;;;;;;;1.73;1.40;;;;;;;-6.03;71.32;93270.94;4840122;29;20078;-79
2024/01/20 06:20:59;;;;;;;1.85;1.40;;;;;;;-6.04;72.16;93273.66;4839845;29;20062;-79
2024/01/20 06:23:25;;;;;;;1.50;1.30;;;;;;;-6.07;71.90;93272.22;4831865;29;20109;-79
2024/01/20 06:25:51;;;;;;;1.92;1.38;;;;;;;-6.04;70.80;93276.19;4838970;29;20042;-79
2024/01/20 06:28:17;;;;;;;1.35;1.25;;;;;;;-6.04;66.74;93281.28;4839747;29;20034;-79
2024/01/20 06:30:46;;;;;;;2.78;1.65;;;;;;;-6.07;66.69;93282.44;4829372;29;20053;-79
2024/01/20 06:33:12;;;;;;;1.75;1.40;;;;;;;-6.12;66.74;93279.59;4838106;29;20042;-79
2024/01/20 06:35:37;;;;;;;1.67;1.30;;;;;;;-6.08;66.94;93288.47;4840043;29;20065;-79
2024/01/20 06:38:04;;;;;;;1.48;1.33;;;;;;;-6.08;66.38;93286.75;4838523;29;20052;-79
2024/01/20 06:40:29;;;;;;;2.17;1.40;;;;;;;-6.01;65.95;93301.34;4804012;29;20591;-79
2024/01/20 06:42:55;;;;;;;1.40;1.30;;;;;;;-6.01;65.84;93306.44;4839865;29;20050;-81
2024/01/20 06:45:20;;;;;;;1.33;1.23;;;;;;;-5.98;65.09;93301.81;4838119;29;20037;-81
2024/01/20 06:47:46;;;;;;;1.52;1.20;;;;;;;-5.97;65.98;93311.06;4838969;29;20042;-81
2024/01/20 06:50:13;;;;;;;2.42;1.48;;;;;;;-5.99;66.14;93304.53;4840354;29;20058;-81
2024/01/20 06:52:38;;;;;;;1.30;1.20;;;;;;;-6.03;66.46;93301.53;4815953;29;20084;-80
2024/01/20 06:55:05;;;;;;;3.50;1.70;;;;;;;-6.07;67.52;93303.59;4838968;29;20460;-80
2024/01/20 06:57:30;;;;;;;2.42;1.50;;;;;;;-5.99;68.92;93330.03;4839105;29;20113;-80
2024/01/20 06:59:56;;;;;;;2.13;1.25;;;;;;;-5.94;71.83;93331.09;4838557;29;20680;-82
2024/01/20 07:02:22;;;;;;;3.08;1.30;;;;;;;-5.92;75.12;93336.84;4839828;29;20053;-80
2024/01/20 07:04:47;;;;;;;1.90;1.42;;;;;;;-5.89;79.19;93336.50;4839802;29;20046;-81
2024/01/20 07:07:13;;;;;;;1.52;1.33;;;;;;;-5.84;80.57;93341.09;4840380;29;20128;-82
2024/01/20 07:09:39;;;;;;;1.70;1.48;;;;;;;-5.80;82.06;93337.25;4840946;29;20498;-80
2024/01/20 07:12:06;;;;;;;3.17;2.03;;;;;;;-5.76;84.09;93341.06;4842254;29;20105;-82
2024/01/20 07:14:32;;;;;;;2.38;1.50;;;;;;;-5.65;82.35;93345.81;4832758;29;20049;-81
2024/01/20 07:16:57;;;;;;;2.13;1.60;;;;;;;-5.54;81.10;93338.72;4823595;29;20931;-80
2024/01/20 07:19:23;;;;;;;1.92;1.55;;;;;;;-5.36;74.51;93343.59;4824088;29;20050;-83
2024/01/20 07:21:48;;;;;;;1.55;1.30;;;;;;;-4.27;70.83;93346.78;4820830;29;20122;-83
2024/01/20 07:24:14;;;;;;;1.30;1.20;;;;;;;-2.84;57.25;93345.50;4837899;29;20042;-82
2024/01/20 07:26:39;;;;;;;1.50;1.20;;;;;;;-1.51;48.52;93346.41;4821805;29;20097;-82
2024/01/20 07:29:05;;;;;;;1.50;1.20;;;;;;;-0.22;45.82;93359.16;4823403;29;20471;-80
2024/01/20 07:31:31;;;;;;;1.85;1.23;;;;;;;0.96;39.22;93355.69;4839598;29;20072;-82
2024/01/20 07:33:56;;;;;;;1.25;1.15;;;;;;;2.06;36.31;93365.69;4823373;29;20057;-79
2024/01/20 07:36:22;;;;;;;1.25;1.10;;;;;;;3.07;35.48;93360.25;4841785;29;20413;-79
2024/01/20 07:38:48;;;;;;;0.90;0.90;;;;;;;4.09;34.53;93362.00;4840817;29;20042;-86
2024/01/20 07:41:13;;;;;;;1.20;1.10;;;;;;;4.91;32.35;93358.53;4837724;29;20101;-80
2024/01/20 07:43:39;;;;;;;0.95;0.90;;;;;;;5.73;30.71;93365.22;4822483;29;20038;-80
2024/01/20 07:46:04;;;;;;;1.58;1.15;;;;;;;5.78;28.61;93373.88;4834179;29;20128;-81
2024/01/20 07:48:30;;;;;;;5.70;2.40;;;;;;;6.27;28.42;93383.78;4815918;29;20037;-80
2024/01/20 07:50:56;;;;;;;6.72;1.88;;;;;;;6.51;26.30;93386.22;4822860;29;20072;-80
2024/01/20 07:53:21;;;;;;;5.68;2.45;;;;;;;7.59;25.73;93386.50;4835597;29;20271;-81
2024/01/20 07:55:48;;;;;;;4.47;1.90;;;;;;;8.17;25.04;93399.78;4836753;29;20038;-81
2024/01/20 07:58:14;;;;;;;1.98;1.30;;;;;;;8.52;24.60;93403.75;4841139;29;20057;-81
2024/01/20 08:00:39;;;;;;;1.20;1.10;;;;;;;8.65;23.94;93410.38;4834355;29;20039;-80
2024/01/20 08:03:05;;;;;;;1.33;0.90;;;;;;;8.43;23.78;93413.88;4839421;29;20056;-81
2024/01/20 08:05:31;;;;;;;1.23;1.00;;;;;;;9.22;22.32;93411.47;4824041;29;20462;-79
2024/01/20 08:07:58;;;;;;;1.30;1.10;;;;;;;10.44;20.83;93421.44;4831943;29;20038;-81
2024/01/20 08:10:24;;;;;;;2.80;1.55;;;;;;;9.64;20.83;93414.00;4838596;29;20054;-79
2024/01/20 08:12:52;;;;;;;3.40;1.90;;;;;;;9.92;20.36;93412.72;4823564;29;20406;-81
2024/01/20 08:15:17;;;;;;;2.33;1.60;;;;;;;10.56;20.28;93414.13;4839590;29;20393;-80
2024/01/20 08:17:43;;;;;;;2.03;1.30;;;;;;;11.01;20.66;93419.56;4836164;29;20068;-83
2024/01/20 08:20:09;;;;;;;1.45;1.17;;;;;;;10.79;20.71;93412.78;4831999;29;20041;-79
2024/01/20 08:22:35;;;;;;;3.30;1.58;;;;;;;11.22;19.41;93415.06;4837115;29;20102;-82
2024/01/20 08:25:03;;;;;;;2.25;1.42;;;;;;;11.75;19.65;93407.50;4837631;29;20042;-80
2024/01/20 08:27:28;;;;;;;2.97;1.80;;;;;;;11.72;19.90;93415.91;4832313;29;20034;-82
2024/01/20 08:29:54;;;;;;;3.58;2.08;;;;;;;11.76;18.42;93421.41;4832835;29;20045;-82
2024/01/20 08:32:19;;;;;;;3.95;2.25;;;;;;;12.27;18.42;93419.28;4838904;29;20080;-81
2024/01/20 08:34:46;;;;;;;1.27;1.10;;;;;;;14.11;17.47;93423.72;4837555;29;20479;-82
2024/01/20 08:37:12;;;;;;;1.63;1.10;;;;;;;16.59;15.76;93425.78;4818824;29;20420;-81
2024/01/20 08:39:37;;;;;;;2.38;1.20;;;;;;;14.21;18.02;93428.06;4830414;29;20434;-82
2024/01/20 08:42:05;;;;;;;2.10;1.50;;;;;;;11.91;19.50;93431.84;4835005;29;20030;-80
2024/01/20 08:44:32;;;;;;;2.13;1.20;;;;;;;12.83;18.34;93430.41;4820272;29;20050;-83
2024/01/20 08:46:58;;;;;;;1.58;1.13;;;;;;;14.52;18.64;93431.03;4830586;29;20442;-80
2024/01/20 08:49:24;;;;;;;1.27;1.08;;;;;;;15.06;17.31;93440.19;4838844;29;20030;-81
2024/01/20 08:51:49;;;;;;;1.95;1.20;;;;;;;14.96;17.29;93445.66;4833436;29;20064;-80
2024/01/20 08:54:16;;;;;;;1.85;1.10;;;;;;;14.75;17.70;93446.00;4837084;29;20037;-83
2024/01/20 08:56:41;;;;;;;1.85;1.20;;;;;;;14.04;18.33;93457.53;4817622;29;20130;-83
2024/01/20 08:59:07;;;;;;;2.00;1.30;;;;;;;11.80;19.39;93464.41;4813679;29;20089;-83
2024/01/20 09:01:33;;;;;;;2.55;1.52;;;;;;;10.58;21.06;93460.97;4834645;29;20038;-83
2024/01/20 09:04:00;;;;;;;1.77;1.30;;;;;;;8.83;22.85;93467.41;4840681;29;20053;-83
2024/01/20 09:06:26;;;;;;;2.45;1.52;;;;;;;8.03;24.75;93469.81;4830291;29;20070;-84
2024/01/20 09:08:51;;;;;;;2.70;1.70;;;;;;;8.42;24.92;93471.50;4836546;29;20046;-81
2024/01/20 09:11:17;;;;;;;2.17;1.35;;;;;;;9.95;23.69;93476.81;4831432;29;20114;-82
2024/01/20 09:13:44;;;;;;;3.03;1.40;;;;;;;10.49;21.94;93480.88;4830169;29;20087;-83
2024/01/20 09:16:10;;;;;;;2.42;1.40;;;;;;;10.21;22.61;93478.44;4823116;29;20046;-83
2024/01/20 09:18:35;;;;;;;2.65;1.42;;;;;;;9.96;22.67;93473.16;4840032;29;20046;-82
2024/01/20 09:21:01;;;;;;;3.33;1.30;;;;;;;9.66;23.35;93485.09;4824458;29;20030;-83
2024/01/20 09:23:26;;;;;;;2.55;1.52;;;;;;;10.01;24.15;93479.19;4826851;29;20050;-82
2024/01/20 09:25:52;;;;;;;2.08;1.30;;;;;;;10.48;21.60;93485.31;4834858;29;20042;-84
2024/01/20 09:28:17;;;;;;;3.33;1.45;;;;;;;10.81;20.99;93489.28;4834015;29;20050;-82
2024/01/20 09:30:43;;;;;;;2.13;1.50;;;;;;;9.28;22.00;93492.25;4828339;29;20046;-83
2024/01/20 09:33:09;;;;;;;1.75;1.40;;;;;;;10.01;20.90;93492.28;4831345;29;20042;-82
2024/01/20 09:35:34;;;;;;;1.17;0.88;;;;;;;10.35;19.77;93486.63;4833577;29;20064;-84
2024/01/20 09:38:00;;;;;;;1.80;1.33;;;;;;;10.31;19.70;93495.25;4824706;29;20360;-85
2024/01/20 09:40:26;;;;;;;1.90;1.23;;;;;;;9.34;20.31;93498.25;4838520;29;20410;-85
2024/01/20 09:42:52;;;;;;;1.98;1.30;;;;;;;8.81;20.84;93500.81;4827532;29;20731;-85
2024/01/20 09:45:18;;;;;;;1.65;1.30;;;;;;;9.98;22.89;93497.25;4808628;29;20634;-84
2024/01/20 09:47:44;;;;;;;2.78;1.70;;;;;;;8.92;26.03;93496.47;4829591;29;20045;-85
2024/01/20 09:50:10;;;;;;;3.03;1.23;;;;;;;7.32;28.82;93510.69;4826341;29;20042;-83
2024/01/20 09:52:50;;;;;;;3.65;1.92;;;;;;;6.30;33.06;93502.94;4837050;29;20050;-82
2024/01/20 09:55:23;;;;;;;2.50;1.40;;;;;;;6.17;30.81;93508.41;4839684;29;20390;-84
2024/01/20 09:57:50;;;;;;;5.35;1.52;;;;;;;6.10;33.20;93505.97;4833919;29;20140;-85
2024/01/20 10:00:17;;;;;;;2.33;1.40;;;;;;;6.22;32.17;93511.13;4829594;29;20397;-85
2024/01/20 10:02:46;;;;;;;6.53;2.03;;;;;;;6.27;31.30;93506.00;4829420;29;20038;-84
2024/01/20 10:05:13;;;;;;;2.90;1.67;;;;;;;5.61;32.96;93511.53;4828517;29;20125;-83
2024/01/20 10:07:39;;;;;;;3.10;1.65;;;;;;;5.15;33.03;93510.59;4826434;29;20033;-84
2024/01/20 10:10:11;;;;;;;2.88;1.70;;;;;;;5.31;34.29;93509.09;4824491;29;20048;-85
2024/01/20 10:12:37;;;;;;;4.30;1.70;;;;;;;5.07;33.33;93518.75;4808112;29;20575;-82
2024/01/20 10:15:03;;;;;;;2.50;1.50;;;;;;;5.11;33.93;93519.06;4824039;29;20383;-85
2024/01/20 10:17:29;;;;;;;1.67;1.25;;;;;;;5.59;33.08;93516.19;4823707;29;20049;-85
2024/01/20 10:19:54;;;;;;;4.13;1.85;;;;;;;5.10;33.71;93505.28;4827032;29;20057;-85
2024/01/20 10:22:20;;;;;;;2.20;1.30;;;;;;;5.24;33.57;93507.66;4823823;29;20046;-85
2024/01/20 10:24:47;;;;;;;2.15;1.40;;;;;;;5.62;32.94;93510.50;4826227;29;20042;-85
2024/01/20 10:27:20;;;;;;;2.95;1.50;;;;;;;6.54;31.68;93506.19;4824529;29;20718;-86
2024/01/20 10:29:49;;;;;;;2.20;1.45;;;;;;;7.54;30.75;93502.91;4827029;29;20050;-85
2024/01/20 10:32:16;;;;;;;2.83;1.63;;;;;;;7.45;29.63;93507.75;4823458;29;20355;-83
2024/01/20 10:34:42;;;;;;;2.10;1.33;;;;;;;7.22;29.51;93506.16;4806887;29;20691;-81
2024/01/20 10:37:12;;;;;;;2.88;1.55;;;;;;;6.43;30.89;93499.25;4824604;29;21251;-81
2024/01/20 10:39:42;;;;;;;2.40;1.40;;;;;;;5.76;32.43;93499.84;4826522;29;20591;-79
2024/01/20 10:42:13;;;;;;;1.58;1.15;;;;;;;5.36;32.84;93505.84;4823873;29;20076;-80
2024/01/20 10:44:42;;;;;;;4.65;1.48;;;;;;;5.07;34.14;93507.56;4822621;29;20107;-79
2024/01/20 10:47:16;;;;;;;2.03;1.33;;;;;;;5.00;33.86;93505.88;4823686;29;20037;-82
2024/01/20 10:49:48;;;;;;;2.72;1.60;;;;;;;4.87;33.80;93502.72;4823071;29;20050;-81
2024/01/20 10:52:14;;;;;;;2.92;1.58;;;;;;;4.85;34.57;93500.34;4829606;29;20152;-80
2024/01/20 10:54:43;;;;;;;2.67;1.67;;;;;;;5.05;33.65;93505.19;4822407;29;20427;-80
2024/01/20 10:57:12;;;;;;;1.75;1.40;;;;;;;4.99;33.94;93508.69;4827613;29;20422;-80
2024/01/20 10:59:42;;;;;;;2.58;1.60;;;;;;;4.75;35.08;93503.50;4821642;29;20386;-81
2024/01/20 11:02:10;;;;;;;2.30;1.50;;;;;;;4.35;35.65;93505.94;4821653;29;20133;-80
2024/01/20 11:04:39;;;;;;;2.25;1.40;;;;;;;4.70;37.15;93498.19;4813779;29;21392;-80
2024/01/20 11:07:08;;;;;;;3.08;1.80;;;;;;;4.91;37.31;93511.63;4790598;29;20109;-80
2024/01/20 11:09:34;;;;;;;2.45;1.35;;;;;;;4.92;37.34;93510.63;4824861;29;20192;-80
2024/01/20 11:12:06;;;;;;;3.22;1.80;;;;;;;5.11;38.41;93504.31;4829583;29;20103;-83
2024/01/20 11:14:32;;;;;;;2.88;1.33;;;;;;;5.11;38.30;93504.31;4819577;29;20120;-81
2024/01/20 11:17:12;;;;;;;4.25;1.30;;;;;;;5.33;37.19;93495.91;4828269;29;20073;-81
2024/01/20 11:19:38;;;;;;;3.78;1.63;;;;;;;4.85;37.41;93499.56;4822686;29;20294;-79
2024/01/20 11:22:05;;;;;;;2.00;1.40;;;;;;;5.40;37.85;93493.97;4827196;29;20066;-82
2024/01/20 11:24:38;;;;;;;2.50;1.50;;;;;;;5.43;36.67;93485.72;4825828;29;20458;-81
2024/01/20 11:27:04;;;;;;;2.70;1.58;;;;;;;5.35;35.86;93499.06;4826378;29;20522;-81
2024/01/20 11:29:30;;;;;;;2.42;1.55;;;;;;;5.29;37.08;93489.59;4827859;29;20081;-80